Time;durP1;ratioP1;P1;durP2;ratioP2;P2;SDS_P1;SDS_P2;PMS_P1;PMS_P2;Temp;Humidity;BMP_temperature;BMP_pressure;BME280_temperature;BME280_humidity;BME280_pressure;Samples;Min_cycle;Max_cycle;Signal;HPM_P1;HPM_P2
2021/07/13 00:02:21;;;;;;;17.92;12.48;;;;;;;;;;5021938;28;20474;-57
2021/07/13 00:04:47;;;;;;;18.50;12.52;;;;;;;;;;5021615;28;20029;-56
2021/07/13 00:07:14;;;;;;;16.60;12.88;;;;;;;;;;5022045;28;20382;-54
2021/07/13 00:09:40;;;;;;;21.20;12.95;;;;;;;;;;5021460;28;20026;-56
2021/07/13 00:12:07;;;;;;;20.05;13.18;;;;;;;;;;5022427;28;20099;-55
2021/07/13 00:14:33;;;;;;;23.83;13.07;;;;;;;;;;5021037;28;20045;-55
2021/07/13 00:16:59;;;;;;;19.35;13.43;;;;;;;;;;5021755;28;20017;-54
2021/07/13 00:19:25;;;;;;;23.20;15.30;;;;;;;;;;5021215;28;20048;-54
2021/07/13 00:21:51;;;;;;;20.40;14.70;;;;;;;;;;5021418;28;20029;-54
2021/07/13 00:24:18;;;;;;;21.08;12.90;;;;;;;;;;5022033;28;20436;-55
2021/07/13 00:26:44;;;;;;;19.48;13.75;;;;;;;;;;5021143;28;20033;-55
2021/07/13 00:29:10;;;;;;;16.90;12.82;;;;;;;;;;5021305;28;20072;-55
2021/07/13 00:31:36;;;;;;;17.77;12.82;;;;;;;;;;5021208;28;20026;-55
2021/07/13 00:34:03;;;;;;;16.13;12.10;;;;;;;;;;5021277;28;20056;-54
2021/07/13 00:36:29;;;;;;;19.23;12.70;;;;;;;;;;5021068;28;20657;-55
2021/07/13 00:38:55;;;;;;;23.35;13.27;;;;;;;;;;5021004;28;20028;-54
2021/07/13 00:41:21;;;;;;;21.20;12.70;;;;;;;;;;5021149;28;20025;-54
2021/07/13 00:43:48;;;;;;;20.05;14.48;;;;;;;;;;5021703;28;20102;-54
2021/07/13 00:46:14;;;;;;;18.27;12.77;;;;;;;;;;5021101;28;20053;-53
2021/07/13 00:48:41;;;;;;;16.73;12.82;;;;;;;;;;5022755;28;20035;-55
2021/07/13 00:51:09;;;;;;;17.15;12.60;;;;;;;;;;5022929;28;20022;-55
2021/07/13 00:53:35;;;;;;;14.68;11.38;;;;;;;;;;5020882;28;20030;-54
2021/07/13 00:56:01;;;;;;;15.02;11.73;;;;;;;;;;5022001;28;20025;-54
2021/07/13 00:58:28;;;;;;;16.27;11.38;;;;;;;;;;5020967;28;20025;-55
2021/07/13 01:00:54;;;;;;;14.32;12.07;;;;;;;;;;5023614;28;20029;-53
2021/07/13 01:03:20;;;;;;;18.30;12.80;;;;;;;;;;5024734;28;20025;-54
2021/07/13 01:05:49;;;;;;;20.13;13.27;;;;;;;;;;5024617;28;20035;-54
2021/07/13 01:08:27;;;;;;;21.17;13.45;;;;;;;;;;5024600;28;20363;-55
2021/07/13 01:11:10;;;;;;;15.48;13.32;;;;;;;;;;5026009;28;20665;-55
2021/07/13 01:13:41;;;;;;;19.63;13.40;;;;;;;;;;5024815;28;20048;-56
2021/07/13 01:16:27;;;;;;;18.65;14.05;;;;;;;;;;5024101;28;20114;-54
2021/07/13 01:18:59;;;;;;;21.45;14.95;;;;;;;;;;5024497;28;20095;-52
2021/07/13 01:21:40;;;;;;;18.00;13.98;;;;;;;;;;5024286;28;20036;-56
2021/07/13 01:24:21;;;;;;;20.27;14.23;;;;;;;;;;5025584;28;20084;-54
2021/07/13 01:26:53;;;;;;;19.00;14.82;;;;;;;;;;5025308;28;20036;-56
2021/07/13 01:29:20;;;;;;;16.98;13.68;;;;;;;;;;5024558;28;20026;-55
2021/07/13 01:31:48;;;;;;;19.80;14.52;;;;;;;;;;5024511;28;20037;-56
2021/07/13 01:34:18;;;;;;;20.17;14.50;;;;;;;;;;5024504;28;20033;-55
2021/07/13 01:36:48;;;;;;;19.23;14.00;;;;;;;;;;5024502;28;20264;-55
2021/07/13 01:39:15;;;;;;;17.77;15.10;;;;;;;;;;5024260;28;20563;-56
2021/07/13 01:41:42;;;;;;;16.92;12.77;;;;;;;;;;5024222;28;20021;-55
2021/07/13 01:44:09;;;;;;;23.48;14.02;;;;;;;;;;5033140;28;20046;-55
2021/07/13 01:46:36;;;;;;;24.50;14.70;;;;;;;;;;5025052;28;20346;-54
2021/07/13 01:49:02;;;;;;;21.15;13.98;;;;;;;;;;5024896;28;20026;-57
2021/07/13 01:51:29;;;;;;;21.42;14.80;;;;;;;;;;5023772;28;20137;-56
2021/07/13 01:53:58;;;;;;;18.45;14.80;;;;;;;;;;5023775;28;20813;-55
2021/07/13 01:56:24;;;;;;;19.45;15.43;;;;;;;;;;5023736;28;20378;-57
2021/07/13 01:58:50;;;;;;;22.48;15.50;;;;;;;;;;5023776;28;20509;-56
2021/07/13 02:01:25;;;;;;;17.95;14.98;;;;;;;;;;5023743;28;20029;-57
2021/07/13 02:03:52;;;;;;;18.48;15.38;;;;;;;;;;5023761;28;20131;-56
2021/07/13 02:06:21;;;;;;;23.65;16.48;;;;;;;;;;5023569;28;20029;-55
2021/07/13 02:08:48;;;;;;;24.17;16.27;;;;;;;;;;5024282;28;20117;-56
2021/07/13 02:11:15;;;;;;;26.85;16.63;;;;;;;;;;5023721;28;20033;-56
2021/07/13 02:13:41;;;;;;;21.55;17.38;;;;;;;;;;5033937;28;20113;-55
2021/07/13 02:16:07;;;;;;;24.42;16.58;;;;;;;;;;5035435;28;20452;-54
2021/07/13 02:18:33;;;;;;;23.88;17.63;;;;;;;;;;5035571;28;20033;-55
2021/07/13 02:20:59;;;;;;;22.38;16.30;;;;;;;;;;5035478;28;20021;-56
2021/07/13 02:23:25;;;;;;;24.05;16.75;;;;;;;;;;5035658;28;20151;-55
2021/07/13 02:25:54;;;;;;;22.33;16.60;;;;;;;;;;5035317;28;20057;-55
2021/07/13 02:28:26;;;;;;;20.98;17.05;;;;;;;;;;5035309;28;20033;-54
2021/07/13 02:30:55;;;;;;;23.73;15.65;;;;;;;;;;5035417;28;20025;-54
2021/07/13 02:33:24;;;;;;;21.23;16.52;;;;;;;;;;5035192;28;20018;-54
2021/07/13 02:35:52;;;;;;;20.35;16.17;;;;;;;;;;5035364;28;20029;-55
2021/07/13 02:38:19;;;;;;;19.98;16.98;;;;;;;;;;5035143;28;20465;-55
2021/07/13 02:40:46;;;;;;;19.95;16.20;;;;;;;;;;5035246;28;20037;-54
2021/07/13 02:43:13;;;;;;;23.48;17.38;;;;;;;;;;5035243;28;20064;-55
2021/07/13 02:45:40;;;;;;;21.88;16.73;;;;;;;;;;5034987;28;20095;-55
2021/07/13 02:48:07;;;;;;;23.17;17.20;;;;;;;;;;5035021;28;20497;-55
2021/07/13 02:50:34;;;;;;;20.20;16.02;;;;;;;;;;5035021;28;20490;-54
2021/07/13 02:53:00;;;;;;;21.48;16.58;;;;;;;;;;5034970;28;20026;-54
2021/07/13 02:55:26;;;;;;;28.75;17.45;;;;;;;;;;5049888;28;20525;-55
2021/07/13 02:57:54;;;;;;;22.75;17.40;;;;;;;;;;5035007;28;20030;-55
2021/07/13 03:00:21;;;;;;;20.08;17.05;;;;;;;;;;5034862;28;20524;-54
2021/07/13 03:02:49;;;;;;;24.40;17.83;;;;;;;;;;5034698;28;20021;-54
2021/07/13 03:05:15;;;;;;;28.50;17.23;;;;;;;;;;5034633;28;20044;-55
2021/07/13 03:07:42;;;;;;;24.75;17.15;;;;;;;;;;5034700;28;20053;-56
2021/07/13 03:10:08;;;;;;;23.00;16.95;;;;;;;;;;5050003;28;20041;-55
2021/07/13 03:12:37;;;;;;;21.58;15.00;;;;;;;;;;5034627;28;20060;-55
2021/07/13 03:15:04;;;;;;;21.35;16.33;;;;;;;;;;5034325;28;20042;-55
2021/07/13 03:17:32;;;;;;;23.42;16.60;;;;;;;;;;5034590;28;20068;-55
2021/07/13 03:19:59;;;;;;;25.27;16.27;;;;;;;;;;5034488;28;20022;-55
2021/07/13 03:22:27;;;;;;;22.73;16.50;;;;;;;;;;5034271;28;20021;-55
2021/07/13 03:24:56;;;;;;;21.40;17.20;;;;;;;;;;5033217;28;20033;-55
2021/07/13 03:27:22;;;;;;;26.38;16.73;;;;;;;;;;5034397;28;20429;-54
2021/07/13 03:29:49;;;;;;;21.20;13.93;;;;;;;;;;5034393;28;20037;-54
2021/07/13 03:32:16;;;;;;;17.92;13.93;;;;;;;;;;5034206;28;20022;-55
2021/07/13 03:34:42;;;;;;;24.17;16.50;;;;;;;;;;5034130;28;20026;-55
2021/07/13 03:37:09;;;;;;;22.02;16.27;;;;;;;;;;5034064;28;20022;-55
2021/07/13 03:39:35;;;;;;;22.23;16.08;;;;;;;;;;5034266;28;20021;-55
2021/07/13 03:42:02;;;;;;;25.67;16.55;;;;;;;;;;5034213;28;20093;-56
2021/07/13 03:44:28;;;;;;;18.63;13.68;;;;;;;;;;5033865;28;20041;-55
2021/07/13 03:46:54;;;;;;;30.33;15.90;;;;;;;;;;5033113;28;20389;-55
2021/07/13 03:49:23;;;;;;;23.13;15.63;;;;;;;;;;5033855;28;20359;-55
2021/07/13 03:51:49;;;;;;;25.40;15.68;;;;;;;;;;5033747;28;20028;-55
2021/07/13 03:54:16;;;;;;;20.88;15.98;;;;;;;;;;5033995;28;20382;-54
2021/07/13 03:56:43;;;;;;;20.95;15.52;;;;;;;;;;5033759;28;20021;-55
2021/07/13 03:59:09;;;;;;;24.05;15.55;;;;;;;;;;5033929;28;20096;-55
2021/07/13 04:01:36;;;;;;;19.15;14.13;;;;;;;;;;5033840;28;20053;-55
2021/07/13 04:04:02;;;;;;;23.25;16.38;;;;;;;;;;5033734;28;20104;-54
2021/07/13 04:06:29;;;;;;;22.63;15.48;;;;;;;;;;5033675;28;20068;-55
2021/07/13 04:08:55;;;;;;;23.38;16.23;;;;;;;;;;5033563;28;20104;-54
2021/07/13 04:11:22;;;;;;;24.40;15.40;;;;;;;;;;5033770;28;20022;-55
2021/07/13 04:13:48;;;;;;;23.88;15.50;;;;;;;;;;5033446;28;20022;-56
2021/07/13 04:16:14;;;;;;;24.17;14.68;;;;;;;;;;5033353;28;20084;-55
2021/07/13 04:18:40;;;;;;;22.17;15.73;;;;;;;;;;5033482;28;20105;-55
2021/07/13 04:21:06;;;;;;;19.95;15.15;;;;;;;;;;5033317;28;20029;-55
2021/07/13 04:23:34;;;;;;;20.67;16.10;;;;;;;;;;5033315;28;20124;-55
2021/07/13 04:26:00;;;;;;;20.52;15.18;;;;;;;;;;5033716;28;20061;-55
2021/07/13 04:28:26;;;;;;;22.33;15.55;;;;;;;;;;5033516;28;20025;-55
2021/07/13 04:30:53;;;;;;;28.30;15.65;;;;;;;;;;5033579;28;20029;-55
2021/07/13 04:33:19;;;;;;;24.38;14.80;;;;;;;;;;5033322;28;20032;-54
2021/07/13 04:35:45;;;;;;;19.17;14.13;;;;;;;;;;5033187;28;20037;-55
2021/07/13 04:38:11;;;;;;;24.52;15.23;;;;;;;;;;5033194;28;20025;-55
2021/07/13 04:40:37;;;;;;;24.45;15.38;;;;;;;;;;5032116;28;20021;-55
2021/07/13 04:43:04;;;;;;;20.88;14.77;;;;;;;;;;5031915;28;20036;-55
2021/07/13 04:45:30;;;;;;;29.95;16.60;;;;;;;;;;5033349;28;20041;-55
2021/07/13 04:47:56;;;;;;;22.27;15.52;;;;;;;;;;5033275;28;20026;-54
2021/07/13 04:50:22;;;;;;;24.13;15.75;;;;;;;;;;5033226;28;20068;-54
2021/07/13 04:52:48;;;;;;;17.48;14.07;;;;;;;;;;5033127;28;20029;-55
2021/07/13 04:55:17;;;;;;;19.88;15.75;;;;;;;;;;5033039;28;20025;-56
2021/07/13 04:57:44;;;;;;;22.33;13.95;;;;;;;;;;5033031;28;20025;-55
2021/07/13 05:00:11;;;;;;;23.20;13.93;;;;;;;;;;5033190;28;20022;-54
2021/07/13 05:02:37;;;;;;;16.80;13.85;;;;;;;;;;5032942;28;20075;-56
2021/07/13 05:05:03;;;;;;;19.98;13.57;;;;;;;;;;5032770;28;20480;-55
2021/07/13 05:07:30;;;;;;;21.70;13.98;;;;;;;;;;5031645;28;20036;-56
2021/07/13 05:09:56;;;;;;;20.05;13.98;;;;;;;;;;5033070;28;20026;-55
2021/07/13 05:12:22;;;;;;;16.90;12.68;;;;;;;;;;5033160;28;20033;-55
2021/07/13 05:14:48;;;;;;;20.63;14.68;;;;;;;;;;5032886;28;20497;-55
2021/07/13 05:17:14;;;;;;;17.20;12.90;;;;;;;;;;5032803;28;20060;-55
2021/07/13 05:19:43;;;;;;;15.70;13.00;;;;;;;;;;5032842;28;20084;-55
2021/07/13 05:22:10;;;;;;;17.90;11.75;;;;;;;;;;5032733;28;20017;-56
2021/07/13 05:24:36;;;;;;;17.23;12.93;;;;;;;;;;5033214;28;20434;-55
2021/07/13 05:27:03;;;;;;;16.55;12.00;;;;;;;;;;5032949;28;20022;-55
2021/07/13 05:29:29;;;;;;;16.73;11.85;;;;;;;;;;5048131;28;20056;-56
2021/07/13 05:31:55;;;;;;;13.32;11.25;;;;;;;;;;5032706;28;20037;-54
2021/07/13 05:34:21;;;;;;;14.30;12.75;;;;;;;;;;5032717;28;20067;-56
2021/07/13 05:36:47;;;;;;;19.00;13.25;;;;;;;;;;5032785;28;20029;-56
2021/07/13 05:39:13;;;;;;;15.80;12.27;;;;;;;;;;5032683;28;20049;-54
2021/07/13 05:41:39;;;;;;;17.63;12.00;;;;;;;;;;5032831;28;20425;-54
2021/07/13 05:44:06;;;;;;;18.58;11.30;;;;;;;;;;5032496;28;20026;-55
2021/07/13 05:46:32;;;;;;;16.95;11.27;;;;;;;;;;5032625;28;20513;-54
2021/07/13 05:48:58;;;;;;;17.33;10.65;;;;;;;;;;5035711;28;20033;-54
2021/07/13 05:51:25;;;;;;;16.15;11.68;;;;;;;;;;5036375;28;20424;-53
2021/07/13 05:53:51;;;;;;;17.20;11.27;;;;;;;;;;5036135;28;20098;-54
2021/07/13 05:56:17;;;;;;;18.48;11.80;;;;;;;;;;5036181;28;20113;-54
2021/07/13 05:58:43;;;;;;;13.50;10.05;;;;;;;;;;5036165;28;20025;-54
2021/07/13 06:01:09;;;;;;;19.40;11.90;;;;;;;;;;5036174;28;20026;-54
2021/07/13 06:03:35;;;;;;;13.73;11.02;;;;;;;;;;5035942;28;20462;-54
2021/07/13 06:06:01;;;;;;;13.70;10.77;;;;;;;;;;5035843;28;20535;-56
2021/07/13 06:08:27;;;;;;;14.82;9.80;;;;;;;;;;5035707;28;20501;-55
2021/07/13 06:10:54;;;;;;;9.90;8.88;;;;;;;;;;5035797;28;20059;-54
2021/07/13 06:13:20;;;;;;;13.52;10.43;;;;;;;;;;5035842;28;20053;-55
2021/07/13 06:15:47;;;;;;;15.95;10.32;;;;;;;;;;5035374;28;20073;-55
2021/07/13 06:18:16;;;;;;;11.95;10.65;;;;;;;;;;5035847;28;20064;-55
2021/07/13 06:20:42;;;;;;;16.08;10.00;;;;;;;;;;5035513;28;20056;-56
2021/07/13 06:23:08;;;;;;;13.07;10.40;;;;;;;;;;5035480;28;20025;-54
2021/07/13 06:25:34;;;;;;;11.68;9.35;;;;;;;;;;5035499;28;20524;-54
2021/07/13 06:28:00;;;;;;;15.82;10.50;;;;;;;;;;5035345;28;20032;-55
2021/07/13 06:30:26;;;;;;;12.82;10.15;;;;;;;;;;5035408;28;20032;-54
2021/07/13 06:32:53;;;;;;;12.70;9.45;;;;;;;;;;5035346;28;20053;-55
2021/07/13 06:35:19;;;;;;;16.40;9.55;;;;;;;;;;5035202;28;20025;-54
2021/07/13 06:37:46;;;;;;;13.45;9.85;;;;;;;;;;5035214;28;20040;-55
2021/07/13 06:40:12;;;;;;;18.90;10.18;;;;;;;;;;5035451;28;20029;-54
2021/07/13 06:42:39;;;;;;;14.95;10.23;;;;;;;;;;5035147;28;20025;-54
2021/07/13 06:45:05;;;;;;;15.55;9.93;;;;;;;;;;5034980;28;20041;-55
2021/07/13 06:47:32;;;;;;;15.00;8.77;;;;;;;;;;5035162;28;20067;-55
2021/07/13 06:49:58;;;;;;;11.90;8.85;;;;;;;;;;5035038;28;20052;-55
2021/07/13 06:52:24;;;;;;;14.20;8.68;;;;;;;;;;5035025;28;20022;-55
2021/07/13 06:54:50;;;;;;;10.85;9.15;;;;;;;;;;5035003;28;20022;-55
2021/07/13 06:57:16;;;;;;;15.25;8.57;;;;;;;;;;5035167;28;20414;-55
2021/07/13 06:59:42;;;;;;;16.75;8.57;;;;;;;;;;5034755;28;20021;-56
2021/07/13 07:02:09;;;;;;;13.60;8.75;;;;;;;;;;5033130;28;20513;-55
2021/07/13 07:04:36;;;;;;;18.63;8.30;;;;;;;;;;5034772;28;20025;-55
2021/07/13 07:07:02;;;;;;;17.95;9.00;;;;;;;;;;5034824;28;20060;-54
2021/07/13 07:09:28;;;;;;;10.93;8.35;;;;;;;;;;5034450;28;20021;-54
2021/07/13 07:11:54;;;;;;;12.48;7.90;;;;;;;;;;5034539;28;20026;-55
2021/07/13 07:14:20;;;;;;;15.95;7.93;;;;;;;;;;5034271;28;20032;-54
2021/07/13 07:16:46;;;;;;;12.38;8.13;;;;;;;;;;5034437;28;20026;-56
2021/07/13 07:19:12;;;;;;;18.58;8.65;;;;;;;;;;5034273;28;20029;-55
2021/07/13 07:21:38;;;;;;;16.70;7.88;;;;;;;;;;5034240;28;20116;-53
2021/07/13 07:24:04;;;;;;;8.80;7.75;;;;;;;;;;5034195;28;20394;-54
2021/07/13 07:26:30;;;;;;;10.70;8.10;;;;;;;;;;5034033;28;20057;-54
2021/07/13 07:28:56;;;;;;;12.50;8.40;;;;;;;;;;5034209;28;20018;-53
2021/07/13 07:31:23;;;;;;;13.82;7.38;;;;;;;;;;5034060;28;20025;-54
2021/07/13 07:33:49;;;;;;;10.80;8.05;;;;;;;;;;5034007;28;20021;-56
2021/07/13 07:36:15;;;;;;;11.07;7.70;;;;;;;;;;5047328;28;20025;-55
2021/07/13 07:38:41;;;;;;;11.07;7.53;;;;;;;;;;5053562;28;20170;-54
2021/07/13 07:41:10;;;;;;;8.77;7.15;;;;;;;;;;5053605;28;20032;-55
2021/07/13 07:43:36;;;;;;;9.70;7.80;;;;;;;;;;5053779;28;20067;-56
2021/07/13 07:46:02;;;;;;;9.85;7.45;;;;;;;;;;5053859;28;20044;-54
2021/07/13 07:48:28;;;;;;;8.70;7.80;;;;;;;;;;5053769;28;20017;-54
2021/07/13 07:50:54;;;;;;;10.00;8.10;;;;;;;;;;5053673;28;20021;-54
2021/07/13 07:53:20;;;;;;;10.25;7.80;;;;;;;;;;5053543;28;20025;-54
2021/07/13 07:55:47;;;;;;;9.80;8.02;;;;;;;;;;5053797;28;20040;-54
2021/07/13 07:58:13;;;;;;;14.40;8.70;;;;;;;;;;5053673;28;20028;-56
2021/07/13 08:00:39;;;;;;;12.90;8.45;;;;;;;;;;5053530;28;20029;-53
2021/07/13 08:03:05;;;;;;;15.85;8.88;;;;;;;;;;5053378;28;20025;-55
2021/07/13 08:05:32;;;;;;;12.32;9.40;;;;;;;;;;5053216;28;20132;-54
2021/07/13 08:07:59;;;;;;;11.00;8.68;;;;;;;;;;5053238;28;20021;-55
2021/07/13 08:10:25;;;;;;;11.70;9.18;;;;;;;;;;5052474;28;20370;-54
2021/07/13 08:12:51;;;;;;;11.27;8.93;;;;;;;;;;5053609;28;20032;-55
2021/07/13 08:15:18;;;;;;;11.52;9.50;;;;;;;;;;5051692;28;20106;-55
2021/07/13 08:17:45;;;;;;;11.45;8.23;;;;;;;;;;5053373;28;20029;-54
2021/07/13 08:20:13;;;;;;;12.18;8.80;;;;;;;;;;5054191;28;20055;-54
2021/07/13 08:22:43;;;;;;;15.13;9.98;;;;;;;;;;5054226;28;20025;-57
2021/07/13 08:25:09;;;;;;;9.30;8.30;;;;;;;;;;5053159;28;20032;-56
2021/07/13 08:27:35;;;;;;;12.23;9.27;;;;;;;;;;5053290;28;20021;-57
2021/07/13 08:30:01;;;;;;;21.23;8.95;;;;;;;;;;5053173;28;20029;-54
2021/07/13 08:32:27;;;;;;;16.75;9.68;;;;;;;;;;5053023;28;20029;-54
2021/07/13 08:34:54;;;;;;;13.32;9.95;;;;;;;;;;5051290;28;20444;-54
2021/07/13 08:37:21;;;;;;;10.18;9.18;;;;;;;;;;5051715;28;20473;-53
2021/07/13 08:39:47;;;;;;;13.25;9.55;;;;;;;;;;5052861;28;20113;-54
2021/07/13 08:42:14;;;;;;;12.38;10.35;;;;;;;;;;5053084;28;20083;-50
2021/07/13 08:44:40;;;;;;;11.50;9.43;;;;;;;;;;5052897;28;20393;-52
2021/07/13 08:47:06;;;;;;;17.00;10.05;;;;;;;;;;5052994;28;20029;-52
2021/07/13 08:49:32;;;;;;;15.18;10.45;;;;;;;;;;5051664;28;20017;-52
2021/07/13 08:51:58;;;;;;;10.35;9.25;;;;;;;;;;5052905;28;20029;-52
2021/07/13 08:54:25;;;;;;;10.15;9.15;;;;;;;;;;5052857;28;20048;-52
2021/07/13 08:56:51;;;;;;;15.40;8.70;;;;;;;;;;5052904;28;20028;-51
2021/07/13 08:59:17;;;;;;;10.30;8.30;;;;;;;;;;5052954;28;20021;-50
2021/07/13 09:01:43;;;;;;;12.18;9.38;;;;;;;;;;5052912;28;20067;-52
2021/07/13 09:04:09;;;;;;;13.85;9.10;;;;;;;;;;5052775;28;20032;-52
2021/07/13 09:06:55;;;;;;;18.38;9.27;;;;;;;;;;5052844;28;20043;-51
2021/07/13 09:09:25;;;;;;;12.10;8.32;;;;;;;;;;5052870;28;20036;-50
2021/07/13 09:12:10;;;;;;;14.85;9.65;;;;;;;;;;5052777;28;20070;-51
2021/07/13 09:14:48;;;;;;;10.25;8.93;;;;;;;;;;5052825;28;20099;-50
2021/07/13 09:17:29;;;;;;;10.27;8.65;;;;;;;;;;5052667;28;20076;-53
2021/07/13 09:19:58;;;;;;;10.52;8.70;;;;;;;;;;5052540;28;20385;-51
2021/07/13 09:22:24;;;;;;;14.32;9.07;;;;;;;;;;5055106;28;20053;-51
2021/07/13 09:24:50;;;;;;;13.75;8.90;;;;;;;;;;5054743;28;20037;-51
2021/07/13 09:27:19;;;;;;;10.68;8.57;;;;;;;;;;5056399;28;20512;-50
2021/07/13 09:29:48;;;;;;;9.70;8.32;;;;;;;;;;5056448;28;20025;-52
2021/07/13 09:32:17;;;;;;;12.93;8.65;;;;;;;;;;5056204;28;20490;-53
2021/07/13 09:35:03;;;;;;;12.48;8.63;;;;;;;;;;5056150;28;20021;-54
2021/07/13 09:37:36;;;;;;;13.02;9.30;;;;;;;;;;5056252;28;20025;-50
2021/07/13 09:40:08;;;;;;;13.23;9.38;;;;;;;;;;5056208;28;20481;-51
2021/07/13 09:42:35;;;;;;;12.35;9.00;;;;;;;;;;5056038;28;20103;-51
2021/07/13 09:45:34;;;;;;;10.77;8.63;;;;;;;;;;5056030;28;20039;-51
2021/07/13 09:48:01;;;;;;;;;;;;;;;;;;5034473;28;20402;-53
2021/07/13 09:50:39;;;;;;;10.43;8.30;;;;;;;;;;5033808;28;20361;-53
2021/07/13 09:53:06;;;;;;;9.40;8.25;;;;;;;;;;5033780;28;20520;-53
2021/07/13 09:55:34;;;;;;;10.13;8.63;;;;;;;;;;5033887;28;20056;-57
2021/07/13 09:58:12;;;;;;;12.82;8.50;;;;;;;;;;5033734;28;20037;-55
2021/07/13 10:00:39;;;;;;;10.95;7.82;;;;;;;;;;5033775;28;20029;-54
2021/07/13 10:03:07;;;;;;;10.63;8.85;;;;;;;;;;5033681;28;20060;-57
2021/07/13 10:05:33;;;;;;;16.95;9.48;;;;;;;;;;5033548;28;20122;-54
2021/07/13 10:08:00;;;;;;;9.82;8.55;;;;;;;;;;5033436;28;20053;-53
2021/07/13 10:10:26;;;;;;;9.65;8.18;;;;;;;;;;5033631;28;20042;-54
2021/07/13 10:12:55;;;;;;;12.70;9.40;;;;;;;;;;5033493;28;20379;-52
2021/07/13 10:15:21;;;;;;;10.23;8.80;;;;;;;;;;5033238;28;20053;-53
2021/07/13 10:17:47;;;;;;;10.15;8.32;;;;;;;;;;5033590;28;20573;-65
2021/07/13 10:20:13;;;;;;;9.90;8.27;;;;;;;;;;5033362;28;20038;-61
2021/07/13 10:22:44;;;;;;;11.85;9.13;;;;;;;;;;5033558;28;20104;-55
2021/07/13 10:25:10;;;;;;;9.00;8.20;;;;;;;;;;5035360;28;20032;-54
2021/07/13 10:27:40;;;;;;;17.67;8.70;;;;;;;;;;5046923;28;20044;-55
2021/07/13 10:30:09;;;;;;;12.13;7.97;;;;;;;;;;5054219;28;20033;-56
2021/07/13 10:32:37;;;;;;;9.30;8.38;;;;;;;;;;5054533;28;20469;-55
2021/07/13 10:35:04;;;;;;;11.93;9.10;;;;;;;;;;5054723;28;20028;-57
2021/07/13 10:37:42;;;;;;;45.40;37.53;;;;;;;;;;5051785;28;20037;-55
2021/07/13 10:40:08;;;;;;;10.68;8.73;;;;;;;;;;5053872;28;20112;-52
2021/07/13 10:42:40;;;;;;;10.90;8.20;;;;;;;;;;5054090;28;20540;-52
2021/07/13 10:45:16;;;;;;;15.77;9.43;;;;;;;;;;5054025;28;20033;-54
2021/07/13 10:48:00;;;;;;;11.90;9.20;;;;;;;;;;5052351;28;20025;-54
2021/07/13 10:50:30;;;;;;;11.75;8.70;;;;;;;;;;5053705;28;20021;-57
2021/07/13 10:52:59;;;;;;;15.00;9.18;;;;;;;;;;5054512;28;20086;-56
2021/07/13 10:55:31;;;;;;;15.23;8.65;;;;;;;;;;5054647;28;20036;-53
2021/07/13 10:58:15;;;;;;;14.95;9.50;;;;;;;;;;5054718;28;20021;-52
2021/07/13 11:00:50;;;;;;;13.50;9.38;;;;;;;;;;5054643;28;20101;-57
2021/07/13 11:03:37;;;;;;;15.40;9.25;;;;;;;;;;5054688;28;20025;-55
2021/07/13 11:06:03;;;;;;;11.70;9.65;;;;;;;;;;5054262;28;20075;-54
2021/07/13 11:11:19;;;;;;;10.77;8.05;;;;;;;;;;5054526;28;20029;-54
2021/07/13 11:13:46;;;;;;;12.70;8.75;;;;;;;;;;5054402;28;20025;-54
2021/07/13 11:16:13;;;;;;;10.40;8.88;;;;;;;;;;5054017;28;20106;-55
2021/07/13 11:18:40;;;;;;;10.88;8.38;;;;;;;;;;5054232;28;20112;-54
2021/07/13 11:21:15;;;;;;;13.68;8.48;;;;;;;;;;5054089;28;20031;-54
2021/07/13 11:23:42;;;;;;;10.88;8.55;;;;;;;;;;5054130;28;20047;-54
2021/07/13 11:26:09;;;;;;;12.20;7.88;;;;;;;;;;5054006;28;20079;-55
2021/07/13 11:28:36;;;;;;;16.42;9.68;;;;;;;;;;5054221;28;20111;-57
2021/07/13 11:31:06;;;;;;;13.20;8.30;;;;;;;;;;5054177;28;20028;-55
2021/07/13 11:33:32;;;;;;;9.82;8.80;;;;;;;;;;5054104;28;20025;-54
2021/07/13 11:36:03;;;;;;;12.02;8.57;;;;;;;;;;5053717;28;20556;-57
2021/07/13 11:38:35;;;;;;;16.75;8.77;;;;;;;;;;5053964;28;20099;-55
2021/07/13 11:41:10;;;;;;;10.85;9.45;;;;;;;;;;5053912;28;20545;-54
2021/07/13 11:43:36;;;;;;;11.90;9.80;;;;;;;;;;5053763;28;20029;-54
2021/07/13 11:46:12;;;;;;;18.48;9.15;;;;;;;;;;5052665;28;20394;-54
2021/07/13 11:48:38;;;;;;;13.85;9.00;;;;;;;;;;5053670;28;20047;-54
2021/07/13 11:51:07;;;;;;;10.05;8.25;;;;;;;;;;5053626;28;20083;-54
2021/07/13 11:53:33;;;;;;;11.82;8.90;;;;;;;;;;5053778;28;20025;-57
2021/07/13 11:56:01;;;;;;;11.65;8.20;;;;;;;;;;5053674;28;20560;-55
2021/07/13 11:58:31;;;;;;;12.60;8.57;;;;;;;;;;5053702;28;20040;-58
2021/07/13 12:01:20;;;;;;;13.73;8.80;;;;;;;;;;5054289;28;20025;-57
2021/07/13 12:03:46;;;;;;;9.95;8.98;;;;;;;;;;5054296;28;20017;-53
2021/07/13 12:06:14;;;;;;;11.85;8.77;;;;;;;;;;5053643;28;20033;-53
2021/07/13 12:08:40;;;;;;;12.60;8.73;;;;;;;;;;5053542;28;20017;-53
2021/07/13 12:11:09;;;;;;;11.45;9.40;;;;;;;;;;5053412;28;20032;-56
2021/07/13 12:13:37;;;;;;;13.15;9.20;;;;;;;;;;5053396;28;20028;-53
2021/07/13 12:16:16;;;;;;;12.23;9.05;;;;;;;;;;5053019;28;20576;-58
2021/07/13 12:18:42;;;;;;;12.32;9.60;;;;;;;;;;5053657;28;20446;-53
2021/07/13 12:21:12;;;;;;;16.40;10.10;;;;;;;;;;5053159;28;20063;-54
2021/07/13 12:23:39;;;;;;;16.02;9.07;;;;;;;;;;5053243;28;20040;-53
2021/07/13 12:26:24;;;;;;;14.80;8.57;;;;;;;;;;5053157;28;20040;-52
2021/07/13 12:28:58;;;;;;;10.45;9.25;;;;;;;;;;5053354;28;20052;-57
2021/07/13 12:31:25;;;;;;;14.63;9.30;;;;;;;;;;5053125;28;20021;-56
2021/07/13 12:33:51;;;;;;;15.00;9.50;;;;;;;;;;5053139;28;20462;-57
2021/07/13 12:36:30;;;;;;;14.82;11.07;;;;;;;;;;5052945;28;20028;-51
2021/07/13 12:38:57;;;;;;;16.48;10.15;;;;;;;;;;5053126;28;20033;-52
2021/07/13 12:41:29;;;;;;;11.20;9.40;;;;;;;;;;5052937;28;20029;-54
2021/07/13 12:43:55;;;;;;;12.70;9.18;;;;;;;;;;5052903;28;20107;-58
2021/07/13 12:46:28;;;;;;;14.95;10.05;;;;;;;;;;5051904;28;20049;-58
2021/07/13 12:48:55;;;;;;;12.80;9.35;;;;;;;;;;5053054;28;20381;-52
2021/07/13 12:51:28;;;;;;;10.40;9.27;;;;;;;;;;5052819;28;20423;-57
2021/07/13 12:54:07;;;;;;;11.88;8.98;;;;;;;;;;5052782;28;20021;-53
2021/07/13 12:56:34;;;;;;;12.63;9.05;;;;;;;;;;5054412;28;20024;-52
2021/07/13 12:59:09;;;;;;;13.80;9.80;;;;;;;;;;5057056;28;20086;-56
2021/07/13 13:01:36;;;;;;;11.35;9.13;;;;;;;;;;5057071;28;20028;-53
2021/07/13 13:04:28;;;;;;;12.32;9.23;;;;;;;;;;5056793;28;20078;-51
2021/07/13 13:06:55;;;;;;;12.18;10.18;;;;;;;;;;5055514;28;20041;-52
2021/07/13 13:09:21;;;;;;;11.73;8.88;;;;;;;;;;5056536;28;20036;-51
2021/07/13 13:11:47;;;;;;;11.73;9.48;;;;;;;;;;5056745;28;20029;-52
2021/07/13 13:14:15;;;;;;;12.38;9.13;;;;;;;;;;5056394;28;20785;-55
2021/07/13 13:16:41;;;;;;;11.85;9.23;;;;;;;;;;5056600;28;20158;-53
2021/07/13 13:19:08;;;;;;;13.65;9.10;;;;;;;;;;5056507;28;20021;-53
2021/07/13 13:21:38;;;;;;;12.70;9.50;;;;;;;;;;5056622;28;20032;-52
2021/07/13 13:24:08;;;;;;;10.52;9.43;;;;;;;;;;5056372;28;20025;-58
2021/07/13 13:26:34;;;;;;;13.32;9.35;;;;;;;;;;5056414;28;20497;-55
2021/07/13 13:29:01;;;;;;;11.43;9.15;;;;;;;;;;5056500;28;20025;-57
2021/07/13 13:31:27;;;;;;;9.85;8.73;;;;;;;;;;5056367;28;20029;-52
2021/07/13 13:33:54;;;;;;;12.27;9.90;;;;;;;;;;5056295;28;20071;-52
2021/07/13 13:41:21;;;;;;;11.30;8.82;;;;;;;;;;5040818;28;20271;-51
2021/07/13 13:43:48;;;;;;;12.23;8.13;;;;;;;;;;5036137;28;20022;-54
2021/07/13 13:46:14;;;;;;;31.95;10.27;;;;;;;;;;5036046;28;20069;-50
2021/07/13 13:48:40;;;;;;;50.35;10.80;;;;;;;;;;5036103;28;20028;-52
2021/07/13 13:51:06;;;;;;;11.80;7.88;;;;;;;;;;5036080;28;20083;-53
2021/07/13 13:53:37;;;;;;;12.18;7.70;;;;;;;;;;5036065;28;20029;-52
2021/07/13 13:56:03;;;;;;;9.57;8.07;;;;;;;;;;5036048;28;20036;-52
2021/07/13 13:58:29;;;;;;;15.68;9.05;;;;;;;;;;5036058;28;20492;-52
2021/07/13 14:00:56;;;;;;;9.45;7.38;;;;;;;;;;5034477;28;20037;-52
2021/07/13 14:03:22;;;;;;;13.90;8.98;;;;;;;;;;5035759;28;20018;-52
2021/07/13 14:05:48;;;;;;;16.58;8.82;;;;;;;;;;5035766;28;20505;-48
2021/07/13 14:08:14;;;;;;;19.20;8.93;;;;;;;;;;5034768;28;20032;-50
2021/07/13 14:10:40;;;;;;;12.82;8.43;;;;;;;;;;5045611;28;20037;-53
2021/07/13 14:13:06;;;;;;;16.45;7.57;;;;;;;;;;5055557;28;20021;-53
2021/07/13 14:15:32;;;;;;;10.55;7.85;;;;;;;;;;5055381;28;20079;-49
2021/07/13 14:17:58;;;;;;;12.30;10.30;;;;;;;;;;5055398;28;20104;-50
2021/07/13 14:20:26;;;;;;;11.63;8.10;;;;;;;;;;5055298;28;20032;-48
2021/07/13 14:22:52;;;;;;;15.55;8.35;;;;;;;;;;5055377;28;20035;-53
2021/07/13 14:25:19;;;;;;;9.02;7.47;;;;;;;;;;5055279;28;20067;-50
2021/07/13 14:27:46;;;;;;;9.63;8.02;;;;;;;;;;5055393;28;20056;-52
2021/07/13 14:30:13;;;;;;;14.57;8.32;;;;;;;;;;5055308;28;20021;-51
2021/07/13 14:32:40;;;;;;;9.70;7.50;;;;;;;;;;5055083;28;20078;-50
2021/07/13 14:35:07;;;;;;;11.00;8.05;;;;;;;;;;5055178;28;20025;-53
2021/07/13 14:37:33;;;;;;;13.15;8.05;;;;;;;;;;5054944;28;20477;-52
2021/07/13 14:39:59;;;;;;;8.43;7.53;;;;;;;;;;5054962;28;20032;-52